Airfield :







YOU CAN JOIN US ON...

 
LOGIN :

Register | Disclaimer

   EN    FR    IT 

 









Legend :    VFR   Marginal VFR   IFR   Intensive IFR   Very Intensive IFR
Visi :
Ceiling :
>= 8 km
>= 3000ft
5 to 8 km
1000 to 3000 ft
1500m to 5 km
500 to 1000 ft
800 to 1500m
200 to 500 ft
< 800m
< 200 ft
Symbols :   Thunderstorms  Fog  Heavy snow  Heavy precipitations  Wind > 20 kt







- Airport Elevation : 84 ft
- IATA code : YJT


CYJT - Stephenville

CURRENT METAR :
  • 191400Z 22014KT 15SM FEW020 FEW160 FEW240 16/13 A2978 RMK SC1AC1CI2 SC TR AC TR SLP085 DENSITY ALT 500FT

EXPIRED METARs :
  • 191300Z 24008KT 15SM FEW015 FEW160 FEW230 16/13 A2978 RMK CF1AC1CI1 CF TR AC TR SLP088 DENSITY ALT 400FT

TAF TAF CYJT
Valid from the 19 at 12:00 until the 20 at 12:00 UTC


191138Z 1912/2012 24008KT P6SM FEW015
BECMG 1912/1914 24012KT SCT180
FM192200 23008KT P6SM BKN160
BECMG 2000/2002 06005KT
FM200600 06005KT P6SM BKN120
BECMG 2010/2012 22005KT RMK NXT FCST BY 191800Z
CZQX FIR / North America



MET'MAP, your aeronautical weather chart ! - Copyright ORBIFLY December 2007 - Disclaimer

ORBIFLY MET'MAP TEAM :

Programming & Development : Alexandra Zaïnal
Concept & Development : Baudouin d'Aumeries
Co-Development & Prog : Marc-Olivier Méhu
Technical & hardware support : Manuel Goepfert

Contact : metmap@orbifly.com




SOURCES & CREDITS :

   NOAA